sensor_id;sensor_type;location;lat;lon;timestamp;P1;durP1;ratioP1;P2;durP2;ratioP2
74100;SDS011;62462;52.530;21.682;2022-10-20T00:01:17;23.52;;;7.43;;
74100;SDS011;62462;52.530;21.682;2022-10-20T00:03:45;13.82;;;4.03;;
74100;SDS011;62462;52.530;21.682;2022-10-20T00:06:16;7.20;;;2.50;;
74100;SDS011;62462;52.530;21.682;2022-10-20T00:08:51;5.72;;;2.33;;
74100;SDS011;62462;52.530;21.682;2022-10-20T00:11:18;6.43;;;1.80;;
74100;SDS011;62462;52.530;21.682;2022-10-20T00:13:46;3.28;;;1.10;;
74100;SDS011;62462;52.530;21.682;2022-10-20T00:16:13;5.70;;;1.80;;
74100;SDS011;62462;52.530;21.682;2022-10-20T00:18:39;5.82;;;2.55;;
74100;SDS011;62462;52.530;21.682;2022-10-20T00:21:06;11.50;;;4.22;;
74100;SDS011;62462;52.530;21.682;2022-10-20T00:23:34;14.82;;;4.90;;
74100;SDS011;62462;52.530;21.682;2022-10-20T00:26:04;18.80;;;5.82;;
74100;SDS011;62462;52.530;21.682;2022-10-20T00:28:31;17.35;;;5.20;;
74100;SDS011;62462;52.530;21.682;2022-10-20T00:30:58;14.75;;;5.28;;
74100;SDS011;62462;52.530;21.682;2022-10-20T00:33:23;11.98;;;4.88;;
74100;SDS011;62462;52.530;21.682;2022-10-20T00:35:50;13.10;;;4.53;;
74100;SDS011;62462;52.530;21.682;2022-10-20T00:38:16;12.18;;;4.70;;
74100;SDS011;62462;52.530;21.682;2022-10-20T00:40:41;7.97;;;3.33;;
74100;SDS011;62462;52.530;21.682;2022-10-20T00:43:14;10.35;;;3.40;;
74100;SDS011;62462;52.530;21.682;2022-10-20T00:45:41;14.48;;;5.22;;
74100;SDS011;62462;52.530;21.682;2022-10-20T00:48:13;15.25;;;4.50;;
74100;SDS011;62462;52.530;21.682;2022-10-20T00:50:50;10.05;;;3.90;;
74100;SDS011;62462;52.530;21.682;2022-10-20T00:53:20;15.43;;;5.18;;
74100;SDS011;62462;52.530;21.682;2022-10-20T00:55:48;12.82;;;4.82;;
74100;SDS011;62462;52.530;21.682;2022-10-20T00:58:16;15.88;;;5.60;;
74100;SDS011;62462;52.530;21.682;2022-10-20T01:00:42;13.50;;;4.15;;
74100;SDS011;62462;52.530;21.682;2022-10-20T01:03:12;13.48;;;4.18;;
74100;SDS011;62462;52.530;21.682;2022-10-20T01:05:44;9.98;;;3.60;;
74100;SDS011;62462;52.530;21.682;2022-10-20T01:08:09;13.93;;;3.63;;
74100;SDS011;62462;52.530;21.682;2022-10-20T01:10:38;6.82;;;3.13;;
74100;SDS011;62462;52.530;21.682;2022-10-20T01:16:16;11.80;;;4.70;;
74100;SDS011;62462;52.530;21.682;2022-10-20T01:40:31;3.10;;;1.55;;
74100;SDS011;62462;52.530;21.682;2022-10-20T01:43:09;4.13;;;1.35;;
74100;SDS011;62462;52.530;21.682;2022-10-20T01:45:38;3.90;;;1.50;;
74100;SDS011;62462;52.530;21.682;2022-10-20T01:48:08;5.10;;;1.90;;
74100;SDS011;62462;52.530;21.682;2022-10-20T01:50:36;2.67;;;1.30;;
74100;SDS011;62462;52.530;21.682;2022-10-20T01:53:04;2.63;;;1.48;;
74100;SDS011;62462;52.530;21.682;2022-10-20T01:55:31;2.58;;;1.45;;
74100;SDS011;62462;52.530;21.682;2022-10-20T02:00:43;2.67;;;1.50;;
74100;SDS011;62462;52.530;21.682;2022-10-20T02:11:36;3.70;;;1.65;;
74100;SDS011;62462;52.530;21.682;2022-10-20T02:13:56;4.90;;;1.90;;
74100;SDS011;62462;52.530;21.682;2022-10-20T02:16:25;3.17;;;1.77;;
74100;SDS011;62462;52.530;21.682;2022-10-20T02:18:53;5.95;;;1.85;;
74100;SDS011;62462;52.530;21.682;2022-10-20T02:21:20;8.35;;;2.35;;
74100;SDS011;62462;52.530;21.682;2022-10-20T02:23:46;22.00;;;2.97;;
74100;SDS011;62462;52.530;21.682;2022-10-20T02:26:15;9.60;;;3.35;;
74100;SDS011;62462;52.530;21.682;2022-10-20T02:28:45;12.15;;;3.67;;
74100;SDS011;62462;52.530;21.682;2022-10-20T02:31:16;10.20;;;3.28;;
74100;SDS011;62462;52.530;21.682;2022-10-20T02:33:43;14.77;;;3.97;;
74100;SDS011;62462;52.530;21.682;2022-10-20T02:36:11;18.55;;;4.70;;
74100;SDS011;62462;52.530;21.682;2022-10-20T02:38:43;13.18;;;4.63;;
74100;SDS011;62462;52.530;21.682;2022-10-20T02:41:09;11.40;;;4.18;;
74100;SDS011;62462;52.530;21.682;2022-10-20T02:43:35;9.35;;;3.00;;
74100;SDS011;62462;52.530;21.682;2022-10-20T02:46:01;14.57;;;4.15;;
74100;SDS011;62462;52.530;21.682;2022-10-20T02:48:26;14.65;;;4.80;;
74100;SDS011;62462;52.530;21.682;2022-10-20T02:50:52;20.27;;;5.07;;
74100;SDS011;62462;52.530;21.682;2022-10-20T02:53:18;16.80;;;5.18;;
74100;SDS011;62462;52.530;21.682;2022-10-20T02:55:43;14.63;;;4.45;;
74100;SDS011;62462;52.530;21.682;2022-10-20T02:58:09;12.25;;;4.13;;
74100;SDS011;62462;52.530;21.682;2022-10-20T03:00:35;20.27;;;5.70;;
74100;SDS011;62462;52.530;21.682;2022-10-20T03:03:01;19.45;;;6.45;;
74100;SDS011;62462;52.530;21.682;2022-10-20T03:05:26;24.55;;;6.30;;
74100;SDS011;62462;52.530;21.682;2022-10-20T03:07:53;23.60;;;7.20;;
74100;SDS011;62462;52.530;21.682;2022-10-20T03:10:19;17.27;;;5.95;;
74100;SDS011;62462;52.530;21.682;2022-10-20T03:12:45;16.08;;;6.05;;
74100;SDS011;62462;52.530;21.682;2022-10-20T03:15:10;16.77;;;5.82;;
74100;SDS011;62462;52.530;21.682;2022-10-20T03:17:36;14.10;;;5.35;;
74100;SDS011;62462;52.530;21.682;2022-10-20T03:20:03;15.85;;;5.28;;
74100;SDS011;62462;52.530;21.682;2022-10-20T03:22:29;14.98;;;5.13;;
74100;SDS011;62462;52.530;21.682;2022-10-20T03:24:54;12.85;;;5.20;;
74100;SDS011;62462;52.530;21.682;2022-10-20T03:27:20;14.00;;;5.18;;
74100;SDS011;62462;52.530;21.682;2022-10-20T03:29:46;12.43;;;5.10;;
74100;SDS011;62462;52.530;21.682;2022-10-20T03:32:12;13.68;;;5.15;;
74100;SDS011;62462;52.530;21.682;2022-10-20T03:34:38;9.73;;;4.40;;
74100;SDS011;62462;52.530;21.682;2022-10-20T03:37:03;10.52;;;4.45;;
74100;SDS011;62462;52.530;21.682;2022-10-20T03:39:29;10.23;;;5.00;;
74100;SDS011;62462;52.530;21.682;2022-10-20T03:41:55;19.63;;;5.53;;
74100;SDS011;62462;52.530;21.682;2022-10-20T03:44:21;7.78;;;3.83;;
74100;SDS011;62462;52.530;21.682;2022-10-20T03:46:48;6.63;;;3.60;;
74100;SDS011;62462;52.530;21.682;2022-10-20T03:49:14;5.18;;;3.08;;
74100;SDS011;62462;52.530;21.682;2022-10-20T03:51:39;5.38;;;3.35;;
74100;SDS011;62462;52.530;21.682;2022-10-20T03:54:05;6.28;;;3.33;;
74100;SDS011;62462;52.530;21.682;2022-10-20T03:56:31;5.65;;;3.20;;
74100;SDS011;62462;52.530;21.682;2022-10-20T03:58:56;8.57;;;3.97;;
74100;SDS011;62462;52.530;21.682;2022-10-20T04:01:23;10.35;;;5.18;;
74100;SDS011;62462;52.530;21.682;2022-10-20T04:03:53;19.90;;;6.05;;
74100;SDS011;62462;52.530;21.682;2022-10-20T04:06:19;17.25;;;7.28;;
74100;SDS011;62462;52.530;21.682;2022-10-20T04:08:45;24.15;;;9.38;;
74100;SDS011;62462;52.530;21.682;2022-10-20T04:11:11;14.98;;;5.78;;
74100;SDS011;62462;52.530;21.682;2022-10-20T04:13:36;11.63;;;5.07;;
74100;SDS011;62462;52.530;21.682;2022-10-20T04:16:02;9.27;;;4.10;;
74100;SDS011;62462;52.530;21.682;2022-10-20T04:18:28;8.68;;;3.75;;
74100;SDS011;62462;52.530;21.682;2022-10-20T04:20:53;8.07;;;4.13;;
74100;SDS011;62462;52.530;21.682;2022-10-20T04:23:19;4.95;;;2.63;;
74100;SDS011;62462;52.530;21.682;2022-10-20T04:25:45;4.47;;;2.90;;
74100;SDS011;62462;52.530;21.682;2022-10-20T04:28:13;6.05;;;3.15;;
74100;SDS011;62462;52.530;21.682;2022-10-20T04:30:40;5.55;;;2.67;;
74100;SDS011;62462;52.530;21.682;2022-10-20T04:33:06;6.50;;;3.33;;
74100;SDS011;62462;52.530;21.682;2022-10-20T04:35:32;6.85;;;3.20;;
74100;SDS011;62462;52.530;21.682;2022-10-20T04:37:58;7.60;;;3.50;;
74100;SDS011;62462;52.530;21.682;2022-10-20T04:40:23;7.18;;;2.90;;
74100;SDS011;62462;52.530;21.682;2022-10-20T04:42:49;5.35;;;2.38;;
74100;SDS011;62462;52.530;21.682;2022-10-20T04:45:15;7.72;;;3.15;;
74100;SDS011;62462;52.530;21.682;2022-10-20T04:47:41;3.97;;;2.30;;
74100;SDS011;62462;52.530;21.682;2022-10-20T04:50:06;4.10;;;2.35;;
74100;SDS011;62462;52.530;21.682;2022-10-20T04:52:33;4.30;;;2.15;;
74100;SDS011;62462;52.530;21.682;2022-10-20T04:54:59;3.33;;;2.53;;
74100;SDS011;62462;52.530;21.682;2022-10-20T04:57:24;4.53;;;2.47;;
74100;SDS011;62462;52.530;21.682;2022-10-20T04:59:50;5.82;;;2.60;;
74100;SDS011;62462;52.530;21.682;2022-10-20T05:02:16;3.85;;;2.35;;
74100;SDS011;62462;52.530;21.682;2022-10-20T05:04:42;3.55;;;2.10;;
74100;SDS011;62462;52.530;21.682;2022-10-20T05:07:07;5.13;;;2.67;;
74100;SDS011;62462;52.530;21.682;2022-10-20T05:09:33;4.53;;;2.78;;
74100;SDS011;62462;52.530;21.682;2022-10-20T05:11:59;5.53;;;3.42;;
74100;SDS011;62462;52.530;21.682;2022-10-20T05:14:25;6.95;;;3.90;;
74100;SDS011;62462;52.530;21.682;2022-10-20T05:16:50;7.95;;;4.70;;
74100;SDS011;62462;52.530;21.682;2022-10-20T05:19:16;5.90;;;3.50;;
74100;SDS011;62462;52.530;21.682;2022-10-20T05:21:43;8.43;;;4.50;;
74100;SDS011;62462;52.530;21.682;2022-10-20T05:24:16;12.02;;;4.90;;
74100;SDS011;62462;52.530;21.682;2022-10-20T05:26:42;8.07;;;3.70;;
74100;SDS011;62462;52.530;21.682;2022-10-20T05:29:09;11.25;;;4.68;;
74100;SDS011;62462;52.530;21.682;2022-10-20T05:31:36;10.68;;;5.22;;
74100;SDS011;62462;52.530;21.682;2022-10-20T05:34:03;11.70;;;6.40;;
74100;SDS011;62462;52.530;21.682;2022-10-20T05:36:29;8.55;;;4.07;;
74100;SDS011;62462;52.530;21.682;2022-10-20T05:38:55;7.25;;;3.45;;
74100;SDS011;62462;52.530;21.682;2022-10-20T05:41:22;9.60;;;3.40;;
74100;SDS011;62462;52.530;21.682;2022-10-20T05:43:53;6.60;;;3.30;;
74100;SDS011;62462;52.530;21.682;2022-10-20T05:46:23;46.78;;;14.50;;
74100;SDS011;62462;52.530;21.682;2022-10-20T05:48:51;56.65;;;17.45;;
74100;SDS011;62462;52.530;21.682;2022-10-20T05:51:20;38.90;;;13.75;;
74100;SDS011;62462;52.530;21.682;2022-10-20T05:53:48;20.90;;;8.82;;
74100;SDS011;62462;52.530;21.682;2022-10-20T05:56:16;16.42;;;5.50;;
74100;SDS011;62462;52.530;21.682;2022-10-20T05:58:44;6.22;;;3.20;;
74100;SDS011;62462;52.530;21.682;2022-10-20T06:01:15;5.78;;;3.40;;
74100;SDS011;62462;52.530;21.682;2022-10-20T06:03:57;6.03;;;2.95;;
74100;SDS011;62462;52.530;21.682;2022-10-20T06:06:25;4.65;;;3.00;;
74100;SDS011;62462;52.530;21.682;2022-10-20T06:08:53;5.20;;;3.15;;
74100;SDS011;62462;52.530;21.682;2022-10-20T06:11:20;4.10;;;2.92;;
74100;SDS011;62462;52.530;21.682;2022-10-20T06:13:46;5.28;;;3.55;;
74100;SDS011;62462;52.530;21.682;2022-10-20T06:16:16;5.20;;;2.80;;
74100;SDS011;62462;52.530;21.682;2022-10-20T06:18:43;6.45;;;3.53;;
74100;SDS011;62462;52.530;21.682;2022-10-20T06:21:09;5.32;;;3.08;;
74100;SDS011;62462;52.530;21.682;2022-10-20T06:23:37;7.30;;;3.35;;
74100;SDS011;62462;52.530;21.682;2022-10-20T06:26:03;5.60;;;3.42;;
74100;SDS011;62462;52.530;21.682;2022-10-20T06:28:34;5.85;;;3.42;;
74100;SDS011;62462;52.530;21.682;2022-10-20T06:31:08;6.35;;;3.83;;
74100;SDS011;62462;52.530;21.682;2022-10-20T06:33:39;6.25;;;4.07;;
74100;SDS011;62462;52.530;21.682;2022-10-20T06:36:05;6.65;;;3.75;;
74100;SDS011;62462;52.530;21.682;2022-10-20T06:38:31;6.28;;;3.90;;
74100;SDS011;62462;52.530;21.682;2022-10-20T06:40:59;5.57;;;3.65;;
74100;SDS011;62462;52.530;21.682;2022-10-20T06:43:26;6.10;;;3.92;;
74100;SDS011;62462;52.530;21.682;2022-10-20T06:45:55;6.65;;;4.18;;
74100;SDS011;62462;52.530;21.682;2022-10-20T06:48:22;5.78;;;3.20;;
74100;SDS011;62462;52.530;21.682;2022-10-20T06:50:48;8.88;;;3.30;;
74100;SDS011;62462;52.530;21.682;2022-10-20T06:53:14;5.60;;;3.78;;
74100;SDS011;62462;52.530;21.682;2022-10-20T06:55:40;8.55;;;4.68;;
74100;SDS011;62462;52.530;21.682;2022-10-20T06:58:06;8.43;;;4.50;;
74100;SDS011;62462;52.530;21.682;2022-10-20T07:00:31;9.35;;;5.00;;
74100;SDS011;62462;52.530;21.682;2022-10-20T07:02:57;11.98;;;5.25;;
74100;SDS011;62462;52.530;21.682;2022-10-20T07:05:23;10.15;;;5.50;;
74100;SDS011;62462;52.530;21.682;2022-10-20T07:07:51;12.82;;;5.57;;
74100;SDS011;62462;52.530;21.682;2022-10-20T07:10:17;37.30;;;6.85;;
74100;SDS011;62462;52.530;21.682;2022-10-20T07:12:43;9.90;;;5.53;;
74100;SDS011;62462;52.530;21.682;2022-10-20T07:15:08;10.55;;;5.63;;
74100;SDS011;62462;52.530;21.682;2022-10-20T07:17:34;13.05;;;5.53;;
74100;SDS011;62462;52.530;21.682;2022-10-20T07:20:00;9.13;;;4.63;;
74100;SDS011;62462;52.530;21.682;2022-10-20T07:22:25;8.52;;;4.70;;
74100;SDS011;62462;52.530;21.682;2022-10-20T07:24:51;17.88;;;4.60;;
74100;SDS011;62462;52.530;21.682;2022-10-20T07:27:18;7.28;;;4.20;;
74100;SDS011;62462;52.530;21.682;2022-10-20T07:29:43;6.68;;;4.53;;
74100;SDS011;62462;52.530;21.682;2022-10-20T07:32:09;6.47;;;4.43;;
74100;SDS011;62462;52.530;21.682;2022-10-20T07:34:35;6.35;;;4.28;;
74100;SDS011;62462;52.530;21.682;2022-10-20T07:37:00;7.35;;;4.70;;
74100;SDS011;62462;52.530;21.682;2022-10-20T07:39:26;6.80;;;4.28;;
74100;SDS011;62462;52.530;21.682;2022-10-20T07:41:52;6.90;;;4.60;;
74100;SDS011;62462;52.530;21.682;2022-10-20T07:44:18;6.35;;;4.30;;
74100;SDS011;62462;52.530;21.682;2022-10-20T07:46:44;6.40;;;4.40;;
74100;SDS011;62462;52.530;21.682;2022-10-20T07:49:10;9.48;;;5.50;;
74100;SDS011;62462;52.530;21.682;2022-10-20T07:51:36;8.93;;;5.00;;
74100;SDS011;62462;52.530;21.682;2022-10-20T07:54:05;7.82;;;4.80;;
74100;SDS011;62462;52.530;21.682;2022-10-20T07:56:34;10.02;;;5.07;;
74100;SDS011;62462;52.530;21.682;2022-10-20T07:59:02;10.95;;;5.50;;
74100;SDS011;62462;52.530;21.682;2022-10-20T08:01:28;8.38;;;4.78;;
74100;SDS011;62462;52.530;21.682;2022-10-20T08:03:53;13.45;;;7.40;;
74100;SDS011;62462;52.530;21.682;2022-10-20T08:06:19;11.27;;;6.20;;
74100;SDS011;62462;52.530;21.682;2022-10-20T08:08:45;11.02;;;6.50;;
74100;SDS011;62462;52.530;21.682;2022-10-20T08:11:11;8.75;;;6.13;;
74100;SDS011;62462;52.530;21.682;2022-10-20T08:13:37;12.45;;;7.60;;
74100;SDS011;62462;52.530;21.682;2022-10-20T08:16:05;13.23;;;7.63;;
74100;SDS011;62462;52.530;21.682;2022-10-20T08:18:31;10.32;;;6.57;;
74100;SDS011;62462;52.530;21.682;2022-10-20T08:21:07;12.00;;;7.20;;
74100;SDS011;62462;52.530;21.682;2022-10-20T08:23:41;13.17;;;7.57;;
74100;SDS011;62462;52.530;21.682;2022-10-20T08:26:09;13.43;;;8.25;;
74100;SDS011;62462;52.530;21.682;2022-10-20T08:28:35;12.65;;;7.80;;
74100;SDS011;62462;52.530;21.682;2022-10-20T08:31:05;15.25;;;7.90;;
74100;SDS011;62462;52.530;21.682;2022-10-20T08:33:31;13.05;;;7.90;;
74100;SDS011;62462;52.530;21.682;2022-10-20T08:36:02;14.48;;;8.38;;
74100;SDS011;62462;52.530;21.682;2022-10-20T08:38:29;12.65;;;7.80;;
74100;SDS011;62462;52.530;21.682;2022-10-20T08:40:55;14.13;;;8.77;;
74100;SDS011;62462;52.530;21.682;2022-10-20T08:43:23;14.52;;;8.45;;
74100;SDS011;62462;52.530;21.682;2022-10-20T08:45:49;12.90;;;7.70;;
74100;SDS011;62462;52.530;21.682;2022-10-20T08:48:19;10.15;;;6.85;;
74100;SDS011;62462;52.530;21.682;2022-10-20T08:50:48;13.20;;;7.82;;
74100;SDS011;62462;52.530;21.682;2022-10-20T08:53:16;11.20;;;6.47;;
74100;SDS011;62462;52.530;21.682;2022-10-20T08:55:44;9.15;;;6.28;;
74100;SDS011;62462;52.530;21.682;2022-10-20T08:58:18;10.65;;;6.20;;
74100;SDS011;62462;52.530;21.682;2022-10-20T09:00:45;9.40;;;6.20;;
74100;SDS011;62462;52.530;21.682;2022-10-20T09:03:15;6.82;;;4.35;;
74100;SDS011;62462;52.530;21.682;2022-10-20T09:05:49;5.82;;;4.07;;
74100;SDS011;62462;52.530;21.682;2022-10-20T09:08:34;6.40;;;3.80;;
74100;SDS011;62462;52.530;21.682;2022-10-20T09:11:01;5.72;;;3.78;;
74100;SDS011;62462;52.530;21.682;2022-10-20T09:13:31;6.80;;;4.00;;
74100;SDS011;62462;52.530;21.682;2022-10-20T09:19:17;6.88;;;4.00;;
74100;SDS011;62462;52.530;21.682;2022-10-20T09:22:21;6.82;;;4.20;;
74100;SDS011;62462;52.530;21.682;2022-10-20T09:24:56;7.20;;;3.85;;
74100;SDS011;62462;52.530;21.682;2022-10-20T09:37:27;5.07;;;3.42;;
74100;SDS011;62462;52.530;21.682;2022-10-20T09:39:57;4.70;;;2.85;;
74100;SDS011;62462;52.530;21.682;2022-10-20T09:52:45;1.90;;;1.20;;
74100;SDS011;62462;52.530;21.682;2022-10-20T10:25:36;4.57;;;1.23;;
74100;SDS011;62462;52.530;21.682;2022-10-20T10:28:03;3.97;;;1.15;;
74100;SDS011;62462;52.530;21.682;2022-10-20T10:30:43;3.70;;;1.95;;
74100;SDS011;62462;52.530;21.682;2022-10-20T10:33:30;3.50;;;2.20;;
74100;SDS011;62462;52.530;21.682;2022-10-20T10:35:57;5.10;;;2.00;;
74100;SDS011;62462;52.530;21.682;2022-10-20T10:38:27;2.78;;;1.45;;
74100;SDS011;62462;52.530;21.682;2022-10-20T10:46:32;6.68;;;3.25;;
74100;SDS011;62462;52.530;21.682;2022-10-20T10:51:59;2.22;;;1.50;;
74100;SDS011;62462;52.530;21.682;2022-10-20T10:55:22;3.35;;;1.75;;
74100;SDS011;62462;52.530;21.682;2022-10-20T11:27:28;2.80;;;0.95;;
74100;SDS011;62462;52.530;21.682;2022-10-20T11:38:38;2.92;;;1.00;;
74100;SDS011;62462;52.530;21.682;2022-10-20T11:41:11;1.60;;;0.80;;
74100;SDS011;62462;52.530;21.682;2022-10-20T11:43:49;1.27;;;0.80;;
74100;SDS011;62462;52.530;21.682;2022-10-20T11:49:05;1.88;;;1.25;;
74100;SDS011;62462;52.530;21.682;2022-10-20T12:08:16;1.55;;;0.70;;
74100;SDS011;62462;52.530;21.682;2022-10-20T12:13:42;1.87;;;0.60;;
74100;SDS011;62462;52.530;21.682;2022-10-20T12:24:38;3.30;;;0.80;;
74100;SDS011;62462;52.530;21.682;2022-10-20T12:39:48;1.35;;;0.60;;
74100;SDS011;62462;52.530;21.682;2022-10-20T12:42:22;1.48;;;0.85;;
74100;SDS011;62462;52.530;21.682;2022-10-20T13:07:07;2.67;;;1.30;;
74100;SDS011;62462;52.530;21.682;2022-10-20T13:09:52;4.78;;;2.30;;
74100;SDS011;62462;52.530;21.682;2022-10-20T13:12:25;3.92;;;1.92;;
74100;SDS011;62462;52.530;21.682;2022-10-20T13:14:54;3.63;;;1.77;;
74100;SDS011;62462;52.530;21.682;2022-10-20T13:17:33;3.63;;;1.33;;
74100;SDS011;62462;52.530;21.682;2022-10-20T13:20:21;1.48;;;0.90;;
74100;SDS011;62462;52.530;21.682;2022-10-20T13:23:09;4.20;;;1.60;;
74100;SDS011;62462;52.530;21.682;2022-10-20T13:25:45;3.15;;;1.50;;
74100;SDS011;62462;52.530;21.682;2022-10-20T13:28:19;3.42;;;1.58;;
74100;SDS011;62462;52.530;21.682;2022-10-20T13:37:04;2.50;;;0.90;;
74100;SDS011;62462;52.530;21.682;2022-10-20T13:43:01;3.33;;;1.85;;
74100;SDS011;62462;52.530;21.682;2022-10-20T13:50:58;4.10;;;1.60;;
74100;SDS011;62462;52.530;21.682;2022-10-20T13:53:39;6.47;;;2.53;;
74100;SDS011;62462;52.530;21.682;2022-10-20T13:56:49;8.45;;;3.10;;
74100;SDS011;62462;52.530;21.682;2022-10-20T13:59:04;8.48;;;3.35;;
74100;SDS011;62462;52.530;21.682;2022-10-20T14:01:45;6.22;;;3.80;;
74100;SDS011;62462;52.530;21.682;2022-10-20T14:04:45;7.85;;;4.05;;
74100;SDS011;62462;52.530;21.682;2022-10-20T14:07:04;8.00;;;3.60;;
74100;SDS011;62462;52.530;21.682;2022-10-20T14:09:35;4.68;;;2.67;;
74100;SDS011;62462;52.530;21.682;2022-10-20T14:12:01;4.93;;;2.30;;
74100;SDS011;62462;52.530;21.682;2022-10-20T14:14:30;3.30;;;1.63;;
74100;SDS011;62462;52.530;21.682;2022-10-20T14:17:01;2.47;;;1.65;;
74100;SDS011;62462;52.530;21.682;2022-10-20T14:19:32;5.78;;;2.10;;
74100;SDS011;62462;52.530;21.682;2022-10-20T14:24:43;4.22;;;1.80;;
74100;SDS011;62462;52.530;21.682;2022-10-20T14:27:18;3.50;;;2.10;;
74100;SDS011;62462;52.530;21.682;2022-10-20T14:29:45;3.97;;;1.70;;
74100;SDS011;62462;52.530;21.682;2022-10-20T14:32:16;3.92;;;2.53;;
74100;SDS011;62462;52.530;21.682;2022-10-20T14:37:26;6.75;;;1.98;;
74100;SDS011;62462;52.530;21.682;2022-10-20T14:40:02;10.23;;;2.90;;
74100;SDS011;62462;52.530;21.682;2022-10-20T14:42:43;7.65;;;3.17;;
74100;SDS011;62462;52.530;21.682;2022-10-20T14:45:22;12.10;;;3.30;;
74100;SDS011;62462;52.530;21.682;2022-10-20T14:47:49;14.32;;;4.10;;
74100;SDS011;62462;52.530;21.682;2022-10-20T14:50:23;12.27;;;4.07;;
74100;SDS011;62462;52.530;21.682;2022-10-20T14:53:43;20.60;;;6.25;;
74100;SDS011;62462;52.530;21.682;2022-10-20T14:55:46;25.42;;;8.52;;
74100;SDS011;62462;52.530;21.682;2022-10-20T14:58:29;27.88;;;9.73;;
74100;SDS011;62462;52.530;21.682;2022-10-20T15:06:39;14.30;;;5.00;;
74100;SDS011;62462;52.530;21.682;2022-10-20T15:09:04;10.00;;;4.18;;
74100;SDS011;62462;52.530;21.682;2022-10-20T15:11:37;11.52;;;3.95;;
74100;SDS011;62462;52.530;21.682;2022-10-20T15:14:03;17.98;;;6.00;;
74100;SDS011;62462;52.530;21.682;2022-10-20T15:16:33;17.35;;;6.70;;
74100;SDS011;62462;52.530;21.682;2022-10-20T15:19:10;17.67;;;5.97;;
74100;SDS011;62462;52.530;21.682;2022-10-20T15:22:11;13.00;;;5.35;;
74100;SDS011;62462;52.530;21.682;2022-10-20T15:24:38;12.27;;;4.60;;
74100;SDS011;62462;52.530;21.682;2022-10-20T15:27:04;15.93;;;4.65;;
74100;SDS011;62462;52.530;21.682;2022-10-20T15:29:35;14.63;;;4.75;;
74100;SDS011;62462;52.530;21.682;2022-10-20T15:32:00;14.77;;;4.97;;
74100;SDS011;62462;52.530;21.682;2022-10-20T15:34:26;13.52;;;4.93;;
74100;SDS011;62462;52.530;21.682;2022-10-20T15:36:52;11.23;;;4.40;;
74100;SDS011;62462;52.530;21.682;2022-10-20T15:39:17;13.38;;;4.70;;
74100;SDS011;62462;52.530;21.682;2022-10-20T15:41:43;17.38;;;4.95;;
74100;SDS011;62462;52.530;21.682;2022-10-20T15:44:16;10.68;;;4.57;;
74100;SDS011;62462;52.530;21.682;2022-10-20T15:46:45;12.80;;;5.07;;
74100;SDS011;62462;52.530;21.682;2022-10-20T15:49:11;13.93;;;4.78;;
74100;SDS011;62462;52.530;21.682;2022-10-20T15:51:38;13.57;;;5.20;;
74100;SDS011;62462;52.530;21.682;2022-10-20T15:54:06;12.50;;;4.72;;
74100;SDS011;62462;52.530;21.682;2022-10-20T15:56:32;8.60;;;4.10;;
74100;SDS011;62462;52.530;21.682;2022-10-20T15:59:00;10.68;;;4.10;;
74100;SDS011;62462;52.530;21.682;2022-10-20T16:01:26;10.07;;;4.00;;
74100;SDS011;62462;52.530;21.682;2022-10-20T16:03:52;9.48;;;3.72;;
74100;SDS011;62462;52.530;21.682;2022-10-20T16:06:19;9.60;;;4.15;;
74100;SDS011;62462;52.530;21.682;2022-10-20T16:08:46;11.40;;;5.32;;
74100;SDS011;62462;52.530;21.682;2022-10-20T16:11:13;15.00;;;6.18;;
74100;SDS011;62462;52.530;21.682;2022-10-20T16:13:41;11.93;;;5.60;;
74100;SDS011;62462;52.530;21.682;2022-10-20T16:16:07;12.52;;;5.18;;
74100;SDS011;62462;52.530;21.682;2022-10-20T16:18:40;13.23;;;4.30;;
74100;SDS011;62462;52.530;21.682;2022-10-20T16:21:06;8.82;;;3.47;;
74100;SDS011;62462;52.530;21.682;2022-10-20T16:23:33;13.52;;;3.92;;
74100;SDS011;62462;52.530;21.682;2022-10-20T16:26:03;8.10;;;3.80;;
74100;SDS011;62462;52.530;21.682;2022-10-20T16:28:30;21.25;;;10.18;;
74100;SDS011;62462;52.530;21.682;2022-10-20T16:31:04;23.70;;;11.30;;
74100;SDS011;62462;52.530;21.682;2022-10-20T16:33:34;17.58;;;9.60;;
74100;SDS011;62462;52.530;21.682;2022-10-20T16:36:01;16.40;;;9.05;;
74100;SDS011;62462;52.530;21.682;2022-10-20T16:38:33;15.40;;;8.05;;
74100;SDS011;62462;52.530;21.682;2022-10-20T16:41:02;15.05;;;7.03;;
74100;SDS011;62462;52.530;21.682;2022-10-20T16:43:30;11.10;;;4.55;;
74100;SDS011;62462;52.530;21.682;2022-10-20T16:45:57;9.70;;;4.43;;
74100;SDS011;62462;52.530;21.682;2022-10-20T16:48:23;6.55;;;3.67;;
74100;SDS011;62462;52.530;21.682;2022-10-20T16:50:48;7.13;;;4.00;;
74100;SDS011;62462;52.530;21.682;2022-10-20T16:53:14;8.65;;;4.30;;
74100;SDS011;62462;52.530;21.682;2022-10-20T16:55:49;13.00;;;6.78;;
74100;SDS011;62462;52.530;21.682;2022-10-20T16:58:16;21.50;;;9.65;;
74100;SDS011;62462;52.530;21.682;2022-10-20T17:00:42;19.80;;;9.55;;
74100;SDS011;62462;52.530;21.682;2022-10-20T17:03:07;16.65;;;8.00;;
74100;SDS011;62462;52.530;21.682;2022-10-20T17:05:33;25.90;;;12.77;;
74100;SDS011;62462;52.530;21.682;2022-10-20T17:07:59;19.88;;;9.73;;
74100;SDS011;62462;52.530;21.682;2022-10-20T17:10:24;21.45;;;9.20;;
74100;SDS011;62462;52.530;21.682;2022-10-20T17:12:50;21.67;;;10.05;;
74100;SDS011;62462;52.530;21.682;2022-10-20T17:15:16;19.75;;;10.73;;
74100;SDS011;62462;52.530;21.682;2022-10-20T17:17:41;21.08;;;11.60;;
74100;SDS011;62462;52.530;21.682;2022-10-20T17:20:07;23.42;;;11.07;;
74100;SDS011;62462;52.530;21.682;2022-10-20T17:22:33;22.60;;;10.55;;
74100;SDS011;62462;52.530;21.682;2022-10-20T17:24:59;27.30;;;11.40;;
74100;SDS011;62462;52.530;21.682;2022-10-20T17:27:25;21.58;;;10.27;;
74100;SDS011;62462;52.530;21.682;2022-10-20T17:29:50;17.83;;;9.63;;
74100;SDS011;62462;52.530;21.682;2022-10-20T17:32:16;19.33;;;10.00;;
74100;SDS011;62462;52.530;21.682;2022-10-20T17:34:42;18.33;;;9.60;;
74100;SDS011;62462;52.530;21.682;2022-10-20T17:37:07;23.45;;;10.63;;
74100;SDS011;62462;52.530;21.682;2022-10-20T17:39:33;24.13;;;11.27;;
74100;SDS011;62462;52.530;21.682;2022-10-20T17:41:59;30.35;;;13.15;;
74100;SDS011;62462;52.530;21.682;2022-10-20T17:44:24;27.77;;;13.82;;
74100;SDS011;62462;52.530;21.682;2022-10-20T17:46:50;36.47;;;16.33;;
74100;SDS011;62462;52.530;21.682;2022-10-20T17:49:16;34.08;;;15.38;;
74100;SDS011;62462;52.530;21.682;2022-10-20T17:51:41;48.13;;;21.45;;
74100;SDS011;62462;52.530;21.682;2022-10-20T17:54:08;40.88;;;19.17;;
74100;SDS011;62462;52.530;21.682;2022-10-20T17:56:34;34.08;;;16.63;;
74100;SDS011;62462;52.530;21.682;2022-10-20T17:59:02;44.90;;;19.83;;
74100;SDS011;62462;52.530;21.682;2022-10-20T18:01:30;46.70;;;21.42;;
74100;SDS011;62462;52.530;21.682;2022-10-20T18:04:01;43.03;;;20.83;;
74100;SDS011;62462;52.530;21.682;2022-10-20T18:06:37;41.83;;;21.08;;
74100;SDS011;62462;52.530;21.682;2022-10-20T18:09:12;39.83;;;19.90;;
74100;SDS011;62462;52.530;21.682;2022-10-20T18:11:41;39.13;;;19.08;;
74100;SDS011;62462;52.530;21.682;2022-10-20T18:14:09;40.95;;;19.70;;
74100;SDS011;62462;52.530;21.682;2022-10-20T18:16:35;46.83;;;21.58;;
74100;SDS011;62462;52.530;21.682;2022-10-20T18:19:02;49.83;;;22.23;;
74100;SDS011;62462;52.530;21.682;2022-10-20T18:21:29;49.42;;;25.85;;
74100;SDS011;62462;52.530;21.682;2022-10-20T18:23:57;55.03;;;27.33;;